Lander, WY

2:17 PM MDT on July 24, 2014 (GMT -0600)
Hunt (KLND) Elev 5558 ft | 42.82 °N, 108.73 °W | Change Station
Active Advisory: Fire Weather Warning Active Notice: Record Report

Current weather conditions updated 12 minutes ago

Clear
Clear
94 °F
Feels Like 94 °F
N
17
Wind Variable Wind from SW
Gusts 37 mph

Today is forecast to be Cooler than yesterday.

Today
High -- | Low -- °F
--% Chance of Precip.
Yesterday
High -- | Low -- °F
Precip. -- in
5:58 AM 8:43 PM
Waning Crescent, 4% visible
Pressure 30.02 in
Visibility 10.0 miles
Clouds Clear
Dew Point 33 °F
Humidity 12%
Rainfall 0.00 in
Snow Depth 0 in
UV 12 out of 12
Pollen 7.30 out of 12
Air Quality Not available.
Flu Activity Not available.
SPECI KLND 242005Z AUTO 23015G32KT 10SM CLR 34/01 A3002 RMK AO2 PK WND 22032/2001 WSHFT 1945 T03440006 TSNO

More Conditions Fewer Conditions

Pressure 30.02 in
Visibility 10.0 miles
Clouds Clear
Dew Point 33 °F
Humidity 12%
Rainfall 0.00 in
Snow Depth 0 in
UV 12 out of 12
Pollen 7.30 out of 12
Air Quality Not available.
Flu Activity Not available.
SPECI KLND 242005Z AUTO 23015G32KT 10SM CLR 34/01 A3002 RMK AO2 PK WND 22032/2001 WSHFT 1945 T03440006 TSNO

More Conditions Fewer Conditions

10-Day Weather Forecast

Almanac

Astronomy

Jul. 24, 2014 Rise Set
Actual Time 5:58 AM MDT 8:43 PM MDT
Civil Twilight 5:25 AM MDT 9:16 PM MDT
Nautical Twilight 4:43 AM MDT 9:57 PM MDT
Astronomical Twilight 3:55 AM MDT 10:45 PM MDT
Moon 4:09 AM MDT 7:00 PM MDT
Length of Visible Light 15h 51m
Length of Day
14h 45m
Tomorrow will be 1m 57s shorter.
Waning Crescent, 4% of the Moon is Illuminated
Today
Waning Crescent
Jul 26
New
Aug 3
First Quarter
Aug 10
Full
Aug 17
Last Quarter

Today's Extremes

State Highs State Lows

Community

WunderPhotos

Upload Photos

1,737,108 photos uploaded!

Nearby

Snow Depth

Station Depth Elevation
Townsend Creek 0 in 8700 ft
Big Sandy Opening 0 in 9080 ft
Cold Springs 0 in 9630 ft
Kendall R.S. 0 in 7740 ft
Loomis Park 0 in 8240 ft

Earthquake Activity

City Distance Mag. Time & Date
No recent earthquake activity has been reported nearby.
Minimum magnitude displayed is 2.5.

Coastal Water Temperatures

Place Temperature
No Stations Reporting

Nearby Weather Stations

Station Location Temp. Heat Index Dew Point Humidity Wind Precip. Elev Updated Type
HADS LITTLE WIND RIVER NEAR RIVERTON WY, Saint Stephens, WY 88 °F 85 °F - - North  at  - 0.00 in / hr 4900 ft 1:15 PM MDT MADIS
Riverton, WY 92.3 °F 88 °F 37 °F 14% South  at  6.0 mph - / hr 5405 ft 2:04 PM MDT Normal
Logan Park, Riverton, WY 94.0 °F 90 °F 39 °F 15% South  at  5.0 mph 0.00 in / hr 4984 ft 2:17 PM MDT Rapid Fire
HADS SOUTH PASS CITY 3 NNE WY, Lander, WY 77 °F 75 °F - - North  at  - 0.00 in / hr 8540 ft 1:00 PM MDT MADIS

Show More Stations Show Fewer Stations